sensor_id;sensor_type;location;lat;lon;timestamp;P1;durP1;ratioP1;P2;durP2;ratioP2
35677;SDS011;21791;42.828;74.582;2023-02-28T00:01:26;24.55;;;12.07;;
35677;SDS011;21791;42.828;74.582;2023-02-28T00:03:53;25.25;;;10.85;;
35677;SDS011;21791;42.828;74.582;2023-02-28T00:06:19;25.48;;;10.10;;
35677;SDS011;21791;42.828;74.582;2023-02-28T00:08:46;23.38;;;10.07;;
35677;SDS011;21791;42.828;74.582;2023-02-28T00:11:13;27.50;;;10.27;;
35677;SDS011;21791;42.828;74.582;2023-02-28T00:13:42;26.38;;;11.48;;
35677;SDS011;21791;42.828;74.582;2023-02-28T00:16:15;24.75;;;11.20;;
35677;SDS011;21791;42.828;74.582;2023-02-28T00:18:46;26.98;;;13.15;;
35677;SDS011;21791;42.828;74.582;2023-02-28T00:21:14;26.77;;;11.88;;
35677;SDS011;21791;42.828;74.582;2023-02-28T00:23:41;31.92;;;14.18;;
35677;SDS011;21791;42.828;74.582;2023-02-28T00:26:07;39.35;;;16.17;;
35677;SDS011;21791;42.828;74.582;2023-02-28T00:28:34;35.58;;;14.70;;
35677;SDS011;21791;42.828;74.582;2023-02-28T00:31:00;35.97;;;15.75;;
35677;SDS011;21791;42.828;74.582;2023-02-28T00:33:27;40.25;;;18.65;;
35677;SDS011;21791;42.828;74.582;2023-02-28T00:36:04;41.15;;;17.92;;
35677;SDS011;21791;42.828;74.582;2023-02-28T00:38:32;43.53;;;20.35;;
35677;SDS011;21791;42.828;74.582;2023-02-28T00:40:58;34.13;;;16.45;;
35677;SDS011;21791;42.828;74.582;2023-02-28T00:43:30;51.85;;;23.63;;
35677;SDS011;21791;42.828;74.582;2023-02-28T00:46:00;52.40;;;25.05;;
35677;SDS011;21791;42.828;74.582;2023-02-28T00:48:27;38.20;;;17.67;;
35677;SDS011;21791;42.828;74.582;2023-02-28T00:50:54;42.22;;;19.48;;
35677;SDS011;21791;42.828;74.582;2023-02-28T00:53:20;32.35;;;15.55;;
35677;SDS011;21791;42.828;74.582;2023-02-28T00:55:48;32.75;;;15.00;;
35677;SDS011;21791;42.828;74.582;2023-02-28T00:58:15;31.98;;;15.38;;
35677;SDS011;21791;42.828;74.582;2023-02-28T01:00:41;34.17;;;15.57;;
35677;SDS011;21791;42.828;74.582;2023-02-28T01:03:08;37.60;;;13.32;;
35677;SDS011;21791;42.828;74.582;2023-02-28T01:05:35;43.40;;;14.98;;
35677;SDS011;21791;42.828;74.582;2023-02-28T01:08:01;36.15;;;14.90;;
35677;SDS011;21791;42.828;74.582;2023-02-28T01:10:27;31.05;;;14.20;;
35677;SDS011;21791;42.828;74.582;2023-02-28T01:12:56;28.23;;;11.35;;
35677;SDS011;21791;42.828;74.582;2023-02-28T01:15:23;37.50;;;12.43;;
35677;SDS011;21791;42.828;74.582;2023-02-28T01:17:49;28.48;;;12.07;;
35677;SDS011;21791;42.828;74.582;2023-02-28T01:20:16;36.20;;;11.73;;
35677;SDS011;21791;42.828;74.582;2023-02-28T01:22:42;31.30;;;11.77;;
35677;SDS011;21791;42.828;74.582;2023-02-28T01:25:09;39.05;;;12.02;;
35677;SDS011;21791;42.828;74.582;2023-02-28T01:27:35;42.13;;;11.80;;
35677;SDS011;21791;42.828;74.582;2023-02-28T01:30:02;42.00;;;12.07;;
35677;SDS011;21791;42.828;74.582;2023-02-28T01:32:32;36.92;;;12.43;;
35677;SDS011;21791;42.828;74.582;2023-02-28T01:34:58;35.03;;;12.85;;
35677;SDS011;21791;42.828;74.582;2023-02-28T01:37:25;44.78;;;12.57;;
35677;SDS011;21791;42.828;74.582;2023-02-28T01:39:52;52.38;;;13.38;;
35677;SDS011;21791;42.828;74.582;2023-02-28T01:42:19;58.45;;;13.57;;
35677;SDS011;21791;42.828;74.582;2023-02-28T01:44:55;54.13;;;13.77;;
35677;SDS011;21791;42.828;74.582;2023-02-28T01:47:26;40.90;;;12.27;;
35677;SDS011;21791;42.828;74.582;2023-02-28T01:50:06;38.65;;;10.40;;
35677;SDS011;21791;42.828;74.582;2023-02-28T01:52:37;36.92;;;12.82;;
35677;SDS011;21791;42.828;74.582;2023-02-28T01:55:05;40.28;;;11.10;;
35677;SDS011;21791;42.828;74.582;2023-02-28T01:57:35;39.13;;;10.13;;
35677;SDS011;21791;42.828;74.582;2023-02-28T02:00:09;29.75;;;9.70;;
35677;SDS011;21791;42.828;74.582;2023-02-28T02:02:43;25.60;;;8.45;;
35677;SDS011;21791;42.828;74.582;2023-02-28T02:05:17;37.88;;;9.45;;
35677;SDS011;21791;42.828;74.582;2023-02-28T02:07:46;36.13;;;10.18;;
35677;SDS011;21791;42.828;74.582;2023-02-28T02:10:16;39.65;;;10.32;;
35677;SDS011;21791;42.828;74.582;2023-02-28T02:18:17;88.63;;;14.23;;
35677;SDS011;21791;42.828;74.582;2023-02-28T02:23:44;34.75;;;8.40;;
35677;SDS011;21791;42.828;74.582;2023-02-28T02:41:00;22.55;;;6.43;;
35677;SDS011;21791;42.828;74.582;2023-02-28T02:43:58;19.92;;;6.80;;
35677;SDS011;21791;42.828;74.582;2023-02-28T02:46:33;20.27;;;6.82;;
35677;SDS011;21791;42.828;74.582;2023-02-28T02:49:05;18.85;;;8.70;;
35677;SDS011;21791;42.828;74.582;2023-02-28T02:51:35;19.50;;;7.97;;
35677;SDS011;21791;42.828;74.582;2023-02-28T02:54:05;16.92;;;8.77;;
35677;SDS011;21791;42.828;74.582;2023-02-28T02:56:37;18.60;;;9.85;;
35677;SDS011;21791;42.828;74.582;2023-02-28T02:59:07;21.67;;;9.43;;
35677;SDS011;21791;42.828;74.582;2023-02-28T03:01:37;26.92;;;9.43;;
35677;SDS011;21791;42.828;74.582;2023-02-28T03:04:10;40.30;;;10.63;;
35677;SDS011;21791;42.828;74.582;2023-02-28T03:06:41;29.60;;;10.45;;
35677;SDS011;21791;42.828;74.582;2023-02-28T03:09:08;27.58;;;10.27;;
35677;SDS011;21791;42.828;74.582;2023-02-28T03:11:37;22.33;;;9.07;;
35677;SDS011;21791;42.828;74.582;2023-02-28T03:22:40;43.42;;;11.93;;
35677;SDS011;21791;42.828;74.582;2023-02-28T03:33:48;42.88;;;13.23;;
35677;SDS011;21791;42.828;74.582;2023-02-28T03:36:21;37.83;;;12.52;;
35677;SDS011;21791;42.828;74.582;2023-02-28T03:38:57;28.38;;;10.65;;
35677;SDS011;21791;42.828;74.582;2023-02-28T03:44:21;18.08;;;9.45;;
35677;SDS011;21791;42.828;74.582;2023-02-28T03:47:10;22.50;;;9.68;;
35677;SDS011;21791;42.828;74.582;2023-02-28T03:49:48;29.73;;;10.65;;
35677;SDS011;21791;42.828;74.582;2023-02-28T03:52:18;23.42;;;10.13;;
35677;SDS011;21791;42.828;74.582;2023-02-28T03:54:50;23.85;;;9.20;;
35677;SDS011;21791;42.828;74.582;2023-02-28T03:59:51;16.90;;;9.25;;
35677;SDS011;21791;42.828;74.582;2023-02-28T04:02:32;21.67;;;9.57;;
35677;SDS011;21791;42.828;74.582;2023-02-28T04:04:59;19.67;;;9.10;;
35677;SDS011;21791;42.828;74.582;2023-02-28T04:07:30;19.60;;;9.32;;
35677;SDS011;21791;42.828;74.582;2023-02-28T04:09:56;26.30;;;9.40;;
35677;SDS011;21791;42.828;74.582;2023-02-28T04:12:23;18.80;;;9.10;;
35677;SDS011;21791;42.828;74.582;2023-02-28T04:14:49;20.60;;;10.25;;
35677;SDS011;21791;42.828;74.582;2023-02-28T04:17:16;26.40;;;10.27;;
35677;SDS011;21791;42.828;74.582;2023-02-28T04:19:43;20.30;;;10.25;;
35677;SDS011;21791;42.828;74.582;2023-02-28T04:22:10;19.73;;;10.38;;
35677;SDS011;21791;42.828;74.582;2023-02-28T04:24:36;22.45;;;10.57;;
35677;SDS011;21791;42.828;74.582;2023-02-28T04:27:06;21.35;;;12.43;;
35677;SDS011;21791;42.828;74.582;2023-02-28T04:29:34;22.33;;;10.32;;
35677;SDS011;21791;42.828;74.582;2023-02-28T04:32:02;19.98;;;9.88;;
35677;SDS011;21791;42.828;74.582;2023-02-28T04:34:30;18.92;;;9.30;;
35677;SDS011;21791;42.828;74.582;2023-02-28T04:36:58;35.67;;;11.93;;
35677;SDS011;21791;42.828;74.582;2023-02-28T04:39:25;21.10;;;11.23;;
35677;SDS011;21791;42.828;74.582;2023-02-28T04:41:52;38.08;;;12.65;;
35677;SDS011;21791;42.828;74.582;2023-02-28T04:44:18;34.75;;;11.43;;
35677;SDS011;21791;42.828;74.582;2023-02-28T04:46:47;37.45;;;11.85;;
35677;SDS011;21791;42.828;74.582;2023-02-28T04:49:15;25.20;;;10.27;;
35677;SDS011;21791;42.828;74.582;2023-02-28T04:51:42;31.75;;;13.75;;
35677;SDS011;21791;42.828;74.582;2023-02-28T04:54:08;27.35;;;10.10;;
35677;SDS011;21791;42.828;74.582;2023-02-28T04:56:35;28.75;;;11.07;;
35677;SDS011;21791;42.828;74.582;2023-02-28T04:59:01;29.00;;;11.95;;
35677;SDS011;21791;42.828;74.582;2023-02-28T05:01:29;23.02;;;11.30;;
35677;SDS011;21791;42.828;74.582;2023-02-28T05:04:01;17.63;;;9.07;;
35677;SDS011;21791;42.828;74.582;2023-02-28T05:06:29;23.75;;;10.02;;
35677;SDS011;21791;42.828;74.582;2023-02-28T05:08:59;26.92;;;9.90;;
35677;SDS011;21791;42.828;74.582;2023-02-28T05:11:27;24.48;;;10.02;;
35677;SDS011;21791;42.828;74.582;2023-02-28T05:14:03;24.75;;;13.32;;
35677;SDS011;21791;42.828;74.582;2023-02-28T05:16:32;31.38;;;13.13;;
35677;SDS011;21791;42.828;74.582;2023-02-28T05:18:58;27.13;;;11.02;;
35677;SDS011;21791;42.828;74.582;2023-02-28T05:21:35;35.25;;;11.85;;
35677;SDS011;21791;42.828;74.582;2023-02-28T05:24:06;21.17;;;10.25;;
35677;SDS011;21791;42.828;74.582;2023-02-28T05:26:38;18.30;;;10.13;;
35677;SDS011;21791;42.828;74.582;2023-02-28T05:29:05;17.10;;;8.02;;
35677;SDS011;21791;42.828;74.582;2023-02-28T05:31:32;26.02;;;12.45;;
35677;SDS011;21791;42.828;74.582;2023-02-28T05:34:00;27.50;;;13.13;;
35677;SDS011;21791;42.828;74.582;2023-02-28T05:36:26;27.23;;;11.70;;
35677;SDS011;21791;42.828;74.582;2023-02-28T05:38:53;24.55;;;11.88;;
35677;SDS011;21791;42.828;74.582;2023-02-28T05:41:19;21.65;;;11.98;;
35677;SDS011;21791;42.828;74.582;2023-02-28T05:43:47;24.70;;;11.70;;
35677;SDS011;21791;42.828;74.582;2023-02-28T05:46:14;10.50;;;5.68;;
35677;SDS011;21791;42.828;74.582;2023-02-28T05:48:41;11.85;;;5.45;;
35677;SDS011;21791;42.828;74.582;2023-02-28T05:51:11;13.60;;;5.38;;
35677;SDS011;21791;42.828;74.582;2023-02-28T05:53:37;11.82;;;5.05;;
35677;SDS011;21791;42.828;74.582;2023-02-28T05:56:04;17.80;;;9.75;;
35677;SDS011;21791;42.828;74.582;2023-02-28T05:58:30;19.95;;;6.85;;
35677;SDS011;21791;42.828;74.582;2023-02-28T06:00:58;13.40;;;5.63;;
35677;SDS011;21791;42.828;74.582;2023-02-28T06:03:25;12.75;;;6.07;;
35677;SDS011;21791;42.828;74.582;2023-02-28T06:05:53;9.60;;;3.20;;
35677;SDS011;21791;42.828;74.582;2023-02-28T06:08:20;9.27;;;4.20;;
35677;SDS011;21791;42.828;74.582;2023-02-28T06:10:46;10.35;;;4.40;;
35677;SDS011;21791;42.828;74.582;2023-02-28T06:13:13;14.35;;;5.40;;
35677;SDS011;21791;42.828;74.582;2023-02-28T06:15:40;8.95;;;2.70;;
35677;SDS011;21791;42.828;74.582;2023-02-28T06:18:07;7.50;;;2.78;;
35677;SDS011;21791;42.828;74.582;2023-02-28T06:20:33;9.93;;;3.10;;
35677;SDS011;21791;42.828;74.582;2023-02-28T06:23:01;8.35;;;3.40;;
35677;SDS011;21791;42.828;74.582;2023-02-28T06:25:28;14.30;;;7.05;;
35677;SDS011;21791;42.828;74.582;2023-02-28T06:27:54;12.70;;;5.40;;
35677;SDS011;21791;42.828;74.582;2023-02-28T06:30:21;14.90;;;3.75;;
35677;SDS011;21791;42.828;74.582;2023-02-28T06:32:54;12.50;;;5.15;;
35677;SDS011;21791;42.828;74.582;2023-02-28T06:35:21;19.20;;;6.78;;
35677;SDS011;21791;42.828;74.582;2023-02-28T06:37:48;23.80;;;7.45;;
35677;SDS011;21791;42.828;74.582;2023-02-28T06:40:15;18.85;;;8.70;;
35677;SDS011;21791;42.828;74.582;2023-02-28T06:42:41;29.15;;;15.13;;
35677;SDS011;21791;42.828;74.582;2023-02-28T06:45:09;29.38;;;13.02;;
35677;SDS011;21791;42.828;74.582;2023-02-28T06:47:37;24.15;;;12.48;;
35677;SDS011;21791;42.828;74.582;2023-02-28T06:50:05;25.20;;;14.60;;
35677;SDS011;21791;42.828;74.582;2023-02-28T06:52:32;27.20;;;12.38;;
35677;SDS011;21791;42.828;74.582;2023-02-28T06:55:01;26.48;;;14.02;;
35677;SDS011;21791;42.828;74.582;2023-02-28T06:57:34;30.10;;;14.63;;
35677;SDS011;21791;42.828;74.582;2023-02-28T07:00:05;29.33;;;16.02;;
35677;SDS011;21791;42.828;74.582;2023-02-28T07:02:34;33.63;;;15.07;;
35677;SDS011;21791;42.828;74.582;2023-02-28T07:05:03;27.23;;;12.80;;
35677;SDS011;21791;42.828;74.582;2023-02-28T07:07:30;23.92;;;11.27;;
35677;SDS011;21791;42.828;74.582;2023-02-28T07:09:58;24.27;;;10.23;;
35677;SDS011;21791;42.828;74.582;2023-02-28T07:12:24;20.25;;;10.98;;
35677;SDS011;21791;42.828;74.582;2023-02-28T07:14:51;23.95;;;11.63;;
35677;SDS011;21791;42.828;74.582;2023-02-28T07:17:17;21.77;;;12.38;;
35677;SDS011;21791;42.828;74.582;2023-02-28T07:19:44;20.65;;;10.10;;
35677;SDS011;21791;42.828;74.582;2023-02-28T07:22:10;19.15;;;10.20;;
35677;SDS011;21791;42.828;74.582;2023-02-28T07:24:37;29.48;;;15.38;;
35677;SDS011;21791;42.828;74.582;2023-02-28T07:27:03;27.98;;;12.88;;
35677;SDS011;21791;42.828;74.582;2023-02-28T07:29:30;14.73;;;9.25;;
35677;SDS011;21791;42.828;74.582;2023-02-28T07:31:57;19.77;;;9.40;;
35677;SDS011;21791;42.828;74.582;2023-02-28T07:34:23;19.40;;;9.40;;
35677;SDS011;21791;42.828;74.582;2023-02-28T07:36:54;19.77;;;8.68;;
35677;SDS011;21791;42.828;74.582;2023-02-28T07:39:21;18.65;;;9.90;;
35677;SDS011;21791;42.828;74.582;2023-02-28T07:41:48;22.95;;;11.02;;
35677;SDS011;21791;42.828;74.582;2023-02-28T07:44:14;22.38;;;11.90;;
35677;SDS011;21791;42.828;74.582;2023-02-28T07:46:41;20.48;;;11.18;;
35677;SDS011;21791;42.828;74.582;2023-02-28T07:49:08;16.83;;;9.77;;
35677;SDS011;21791;42.828;74.582;2023-02-28T07:51:34;22.85;;;11.73;;
35677;SDS011;21791;42.828;74.582;2023-02-28T07:54:01;23.15;;;11.20;;
35677;SDS011;21791;42.828;74.582;2023-02-28T07:56:28;21.67;;;12.27;;
35677;SDS011;21791;42.828;74.582;2023-02-28T07:58:55;21.77;;;10.27;;
35677;SDS011;21791;42.828;74.582;2023-02-28T08:01:21;23.70;;;12.45;;
35677;SDS011;21791;42.828;74.582;2023-02-28T08:03:48;25.38;;;12.45;;
35677;SDS011;21791;42.828;74.582;2023-02-28T08:06:22;27.13;;;14.93;;
35677;SDS011;21791;42.828;74.582;2023-02-28T08:08:50;22.48;;;13.38;;
35677;SDS011;21791;42.828;74.582;2023-02-28T08:11:17;26.25;;;14.02;;
35677;SDS011;21791;42.828;74.582;2023-02-28T08:13:45;26.10;;;11.13;;
35677;SDS011;21791;42.828;74.582;2023-02-28T08:16:12;22.40;;;13.02;;
35677;SDS011;21791;42.828;74.582;2023-02-28T08:18:48;27.65;;;15.73;;
35677;SDS011;21791;42.828;74.582;2023-02-28T08:21:15;26.35;;;12.18;;
35677;SDS011;21791;42.828;74.582;2023-02-28T08:23:41;22.98;;;12.55;;
35677;SDS011;21791;42.828;74.582;2023-02-28T08:26:08;28.33;;;14.68;;
35677;SDS011;21791;42.828;74.582;2023-02-28T08:28:34;30.70;;;16.48;;
35677;SDS011;21791;42.828;74.582;2023-02-28T08:31:01;47.47;;;23.67;;
35677;SDS011;21791;42.828;74.582;2023-02-28T08:33:34;41.13;;;23.42;;
35677;SDS011;21791;42.828;74.582;2023-02-28T08:36:01;39.40;;;22.95;;
35677;SDS011;21791;42.828;74.582;2023-02-28T08:38:28;42.35;;;23.65;;
35677;SDS011;21791;42.828;74.582;2023-02-28T08:41:02;44.35;;;22.63;;
35677;SDS011;21791;42.828;74.582;2023-02-28T08:43:34;39.60;;;23.05;;
35677;SDS011;21791;42.828;74.582;2023-02-28T08:46:01;42.50;;;22.52;;
35677;SDS011;21791;42.828;74.582;2023-02-28T08:48:29;37.20;;;22.08;;
35677;SDS011;21791;42.828;74.582;2023-02-28T08:50:59;32.42;;;17.67;;
35677;SDS011;21791;42.828;74.582;2023-02-28T08:53:28;40.55;;;18.00;;
35677;SDS011;21791;42.828;74.582;2023-02-28T08:55:58;32.33;;;19.33;;
35677;SDS011;21791;42.828;74.582;2023-02-28T08:58:26;32.78;;;15.32;;
35677;SDS011;21791;42.828;74.582;2023-02-28T09:00:53;25.13;;;13.57;;
35677;SDS011;21791;42.828;74.582;2023-02-28T09:03:20;25.17;;;14.32;;
35677;SDS011;21791;42.828;74.582;2023-02-28T09:08:25;19.23;;;11.18;;
35677;SDS011;21791;42.828;74.582;2023-02-28T09:10:54;21.88;;;11.40;;
35677;SDS011;21791;42.828;74.582;2023-02-28T09:13:24;20.90;;;10.35;;
35677;SDS011;21791;42.828;74.582;2023-02-28T09:15:51;17.63;;;9.65;;
35677;SDS011;21791;42.828;74.582;2023-02-28T09:18:18;22.83;;;9.65;;
35677;SDS011;21791;42.828;74.582;2023-02-28T09:20:45;22.38;;;11.23;;
35677;SDS011;21791;42.828;74.582;2023-02-28T09:23:12;26.35;;;13.65;;
35677;SDS011;21791;42.828;74.582;2023-02-28T09:25:44;26.42;;;12.27;;
35677;SDS011;21791;42.828;74.582;2023-02-28T09:28:12;21.88;;;12.35;;
35677;SDS011;21791;42.828;74.582;2023-02-28T09:30:41;25.90;;;13.05;;
35677;SDS011;21791;42.828;74.582;2023-02-28T09:33:09;29.10;;;13.95;;
35677;SDS011;21791;42.828;74.582;2023-02-28T09:35:36;26.73;;;13.73;;
35677;SDS011;21791;42.828;74.582;2023-02-28T09:38:03;29.25;;;16.15;;
35677;SDS011;21791;42.828;74.582;2023-02-28T09:40:31;30.95;;;16.75;;
35677;SDS011;21791;42.828;74.582;2023-02-28T09:43:02;36.45;;;16.63;;
35677;SDS011;21791;42.828;74.582;2023-02-28T09:45:33;41.88;;;17.17;;
35677;SDS011;21791;42.828;74.582;2023-02-28T09:48:04;31.58;;;16.63;;
35677;SDS011;21791;42.828;74.582;2023-02-28T09:50:39;34.85;;;16.63;;
35677;SDS011;21791;42.828;74.582;2023-02-28T09:56:03;28.67;;;15.88;;
35677;SDS011;21791;42.828;74.582;2023-02-28T09:58:38;35.95;;;15.68;;
35677;SDS011;21791;42.828;74.582;2023-02-28T10:05:04;30.40;;;15.77;;
35677;SDS011;21791;42.828;74.582;2023-02-28T10:07:39;24.85;;;13.40;;
35677;SDS011;21791;42.828;74.582;2023-02-28T10:10:28;25.65;;;15.45;;
35677;SDS011;21791;42.828;74.582;2023-02-28T10:13:00;31.42;;;16.40;;
35677;SDS011;21791;42.828;74.582;2023-02-28T10:15:31;36.42;;;20.65;;
35677;SDS011;21791;42.828;74.582;2023-02-28T10:18:01;35.53;;;19.38;;
35677;SDS011;21791;42.828;74.582;2023-02-28T10:20:32;37.22;;;20.23;;
35677;SDS011;21791;42.828;74.582;2023-02-28T10:23:17;43.22;;;20.23;;
35677;SDS011;21791;42.828;74.582;2023-02-28T10:25:58;34.35;;;19.85;;
35677;SDS011;21791;42.828;74.582;2023-02-28T10:28:26;39.42;;;20.95;;
35677;SDS011;21791;42.828;74.582;2023-02-28T10:30:56;38.30;;;20.08;;
35677;SDS011;21791;42.828;74.582;2023-02-28T10:33:30;39.20;;;21.65;;
35677;SDS011;21791;42.828;74.582;2023-02-28T10:36:00;43.33;;;20.02;;
35677;SDS011;21791;42.828;74.582;2023-02-28T10:38:35;41.50;;;22.73;;
35677;SDS011;21791;42.828;74.582;2023-02-28T10:41:07;39.38;;;21.27;;
35677;SDS011;21791;42.828;74.582;2023-02-28T10:43:37;40.92;;;20.75;;
35677;SDS011;21791;42.828;74.582;2023-02-28T10:46:11;38.15;;;21.08;;
35677;SDS011;21791;42.828;74.582;2023-02-28T10:49:07;32.25;;;19.70;;
35677;SDS011;21791;42.828;74.582;2023-02-28T10:51:41;37.72;;;18.70;;
35677;SDS011;21791;42.828;74.582;2023-02-28T10:54:15;32.85;;;16.98;;
35677;SDS011;21791;42.828;74.582;2023-02-28T10:56:45;33.22;;;16.15;;
35677;SDS011;21791;42.828;74.582;2023-02-28T10:59:32;28.98;;;13.20;;
35677;SDS011;21791;42.828;74.582;2023-02-28T11:01:59;25.60;;;11.95;;
35677;SDS011;21791;42.828;74.582;2023-02-28T11:06:58;22.45;;;11.77;;
35677;SDS011;21791;42.828;74.582;2023-02-28T11:09:33;30.52;;;11.63;;
35677;SDS011;21791;42.828;74.582;2023-02-28T11:12:01;27.38;;;12.05;;
35677;SDS011;21791;42.828;74.582;2023-02-28T11:14:31;24.80;;;11.45;;
35677;SDS011;21791;42.828;74.582;2023-02-28T11:17:19;21.95;;;11.50;;
35677;SDS011;21791;42.828;74.582;2023-02-28T11:19:50;22.75;;;11.95;;
35677;SDS011;21791;42.828;74.582;2023-02-28T11:22:23;39.40;;;13.05;;
35677;SDS011;21791;42.828;74.582;2023-02-28T11:24:55;25.05;;;11.48;;
35677;SDS011;21791;42.828;74.582;2023-02-28T11:29:57;24.30;;;11.93;;
35677;SDS011;21791;42.828;74.582;2023-02-28T11:32:25;25.05;;;11.88;;
35677;SDS011;21791;42.828;74.582;2023-02-28T11:35:04;24.25;;;12.40;;
35677;SDS011;21791;42.828;74.582;2023-02-28T11:37:45;27.98;;;12.65;;
35677;SDS011;21791;42.828;74.582;2023-02-28T11:40:15;22.02;;;12.05;;
35677;SDS011;21791;42.828;74.582;2023-02-28T11:42:59;24.92;;;12.38;;
35677;SDS011;21791;42.828;74.582;2023-02-28T11:45:36;23.25;;;11.65;;
35677;SDS011;21791;42.828;74.582;2023-02-28T11:56:07;26.27;;;13.50;;
35677;SDS011;21791;42.828;74.582;2023-02-28T11:59:09;28.20;;;13.02;;
35677;SDS011;21791;42.828;74.582;2023-02-28T12:05:14;29.67;;;13.15;;
35677;SDS011;21791;42.828;74.582;2023-02-28T12:10:30;29.50;;;14.05;;
35677;SDS011;21791;42.828;74.582;2023-02-28T12:13:22;32.50;;;15.40;;
35677;SDS011;21791;42.828;74.582;2023-02-28T12:18:25;31.40;;;13.82;;
35677;SDS011;21791;42.828;74.582;2023-02-28T12:21:15;28.38;;;14.25;;
35677;SDS011;21791;42.828;74.582;2023-02-28T12:24:28;31.30;;;13.45;;
35677;SDS011;21791;42.828;74.582;2023-02-28T12:27:14;27.80;;;15.48;;
35677;SDS011;21791;42.828;74.582;2023-02-28T12:29:46;26.38;;;14.52;;
35677;SDS011;21791;42.828;74.582;2023-02-28T12:35:11;43.53;;;18.60;;
35677;SDS011;21791;42.828;74.582;2023-02-28T12:37:44;51.08;;;18.83;;
35677;SDS011;21791;42.828;74.582;2023-02-28T12:40:22;47.10;;;18.95;;
35677;SDS011;21791;42.828;74.582;2023-02-28T12:42:56;49.78;;;19.92;;
35677;SDS011;21791;42.828;74.582;2023-02-28T12:45:34;46.03;;;19.02;;
35677;SDS011;21791;42.828;74.582;2023-02-28T12:48:18;46.17;;;19.75;;
35677;SDS011;21791;42.828;74.582;2023-02-28T12:51:00;46.15;;;20.92;;
35677;SDS011;21791;42.828;74.582;2023-02-28T12:53:35;44.97;;;22.05;;
35677;SDS011;21791;42.828;74.582;2023-02-28T12:56:47;39.03;;;20.48;;
35677;SDS011;21791;42.828;74.582;2023-02-28T12:59:48;38.60;;;21.42;;
35677;SDS011;21791;42.828;74.582;2023-02-28T13:05:35;43.03;;;21.08;;
35677;SDS011;21791;42.828;74.582;2023-02-28T13:08:28;56.03;;;21.80;;
35677;SDS011;21791;42.828;74.582;2023-02-28T13:14:19;50.22;;;23.70;;
35677;SDS011;21791;42.828;74.582;2023-02-28T13:17:34;59.65;;;28.58;;
35677;SDS011;21791;42.828;74.582;2023-02-28T13:19:38;75.43;;;37.50;;
35677;SDS011;21791;42.828;74.582;2023-02-28T13:27:49;164.13;;;98.32;;
35677;SDS011;21791;42.828;74.582;2023-02-28T13:33:29;127.57;;;65.32;;
35677;SDS011;21791;42.828;74.582;2023-02-28T13:38:45;100.38;;;54.03;;
35677;SDS011;21791;42.828;74.582;2023-02-28T13:44:27;68.50;;;40.55;;
35677;SDS011;21791;42.828;74.582;2023-02-28T13:49:18;63.00;;;34.85;;
35677;SDS011;21791;42.828;74.582;2023-02-28T13:51:46;69.30;;;38.60;;
35677;SDS011;21791;42.828;74.582;2023-02-28T14:06:18;59.80;;;30.92;;
35677;SDS011;21791;42.828;74.582;2023-02-28T14:09:06;57.60;;;31.15;;
35677;SDS011;21791;42.828;74.582;2023-02-28T14:11:51;61.63;;;31.17;;
35677;SDS011;21791;42.828;74.582;2023-02-28T14:17:03;53.63;;;30.73;;
35677;SDS011;21791;42.828;74.582;2023-02-28T14:19:34;55.30;;;29.77;;
35677;SDS011;21791;42.828;74.582;2023-02-28T14:31:12;72.10;;;30.27;;
35677;SDS011;21791;42.828;74.582;2023-02-28T14:34:04;85.25;;;32.67;;
35677;SDS011;21791;42.828;74.582;2023-02-28T14:36:38;62.03;;;28.92;;
35677;SDS011;21791;42.828;74.582;2023-02-28T14:39:19;56.22;;;25.38;;
35677;SDS011;21791;42.828;74.582;2023-02-28T14:41:48;49.13;;;23.90;;
35677;SDS011;21791;42.828;74.582;2023-02-28T14:44:21;40.88;;;19.30;;
35677;SDS011;21791;42.828;74.582;2023-02-28T14:46:49;43.58;;;21.13;;
35677;SDS011;21791;42.828;74.582;2023-02-28T14:49:29;39.40;;;20.38;;
35677;SDS011;21791;42.828;74.582;2023-02-28T14:52:13;45.30;;;20.27;;
35677;SDS011;21791;42.828;74.582;2023-02-28T14:54:43;38.50;;;19.45;;
35677;SDS011;21791;42.828;74.582;2023-02-28T14:57:25;36.78;;;20.13;;
35677;SDS011;21791;42.828;74.582;2023-02-28T14:59:57;45.97;;;20.98;;
35677;SDS011;21791;42.828;74.582;2023-02-28T15:02:26;39.92;;;20.75;;
35677;SDS011;21791;42.828;74.582;2023-02-28T15:04:56;52.33;;;21.80;;
35677;SDS011;21791;42.828;74.582;2023-02-28T15:07:25;35.47;;;17.30;;
35677;SDS011;21791;42.828;74.582;2023-02-28T15:12:51;37.83;;;16.88;;
35677;SDS011;21791;42.828;74.582;2023-02-28T15:15:19;30.95;;;14.13;;
35677;SDS011;21791;42.828;74.582;2023-02-28T15:17:51;30.35;;;12.60;;
35677;SDS011;21791;42.828;74.582;2023-02-28T15:20:21;18.77;;;10.07;;
35677;SDS011;21791;42.828;74.582;2023-02-28T15:22:49;24.15;;;11.15;;
35677;SDS011;21791;42.828;74.582;2023-02-28T15:25:19;28.60;;;11.50;;
35677;SDS011;21791;42.828;74.582;2023-02-28T15:27:50;20.70;;;11.13;;
35677;SDS011;21791;42.828;74.582;2023-02-28T15:30:21;27.00;;;11.48;;
35677;SDS011;21791;42.828;74.582;2023-02-28T15:35:50;37.75;;;13.60;;
35677;SDS011;21791;42.828;74.582;2023-02-28T15:38:35;32.45;;;13.25;;
35677;SDS011;21791;42.828;74.582;2023-02-28T15:41:02;37.70;;;13.75;;
35677;SDS011;21791;42.828;74.582;2023-02-28T15:46:07;38.20;;;13.57;;
35677;SDS011;21791;42.828;74.582;2023-02-28T15:48:38;42.15;;;15.13;;
35677;SDS011;21791;42.828;74.582;2023-02-28T15:51:20;41.70;;;15.95;;
35677;SDS011;21791;42.828;74.582;2023-02-28T15:54:02;33.47;;;15.65;;
35677;SDS011;21791;42.828;74.582;2023-02-28T15:56:44;42.05;;;17.23;;
35677;SDS011;21791;42.828;74.582;2023-02-28T15:59:16;33.03;;;16.15;;
35677;SDS011;21791;42.828;74.582;2023-02-28T16:02:03;39.53;;;17.90;;
35677;SDS011;21791;42.828;74.582;2023-02-28T16:04:56;36.15;;;17.50;;
35677;SDS011;21791;42.828;74.582;2023-02-28T16:07:25;41.17;;;19.25;;
35677;SDS011;21791;42.828;74.582;2023-02-28T16:09:52;47.40;;;18.00;;
35677;SDS011;21791;42.828;74.582;2023-02-28T16:12:19;41.40;;;18.58;;
35677;SDS011;21791;42.828;74.582;2023-02-28T16:14:51;37.15;;;16.38;;
35677;SDS011;21791;42.828;74.582;2023-02-28T16:17:23;37.50;;;16.73;;
35677;SDS011;21791;42.828;74.582;2023-02-28T16:19:52;35.05;;;15.52;;
35677;SDS011;21791;42.828;74.582;2023-02-28T16:22:19;33.80;;;15.27;;
35677;SDS011;21791;42.828;74.582;2023-02-28T16:24:46;27.70;;;13.40;;
35677;SDS011;21791;42.828;74.582;2023-02-28T16:27:15;31.98;;;13.80;;
35677;SDS011;21791;42.828;74.582;2023-02-28T16:29:56;32.83;;;12.88;;
35677;SDS011;21791;42.828;74.582;2023-02-28T16:32:22;41.70;;;12.77;;
35677;SDS011;21791;42.828;74.582;2023-02-28T16:34:49;31.00;;;12.80;;
35677;SDS011;21791;42.828;74.582;2023-02-28T16:37:16;36.40;;;13.48;;
35677;SDS011;21791;42.828;74.582;2023-02-28T16:39:44;32.97;;;12.70;;
35677;SDS011;21791;42.828;74.582;2023-02-28T16:42:14;26.88;;;11.52;;
35677;SDS011;21791;42.828;74.582;2023-02-28T16:44:47;33.22;;;11.52;;
35677;SDS011;21791;42.828;74.582;2023-02-28T16:47:13;30.48;;;12.38;;
35677;SDS011;21791;42.828;74.582;2023-02-28T16:49:40;30.25;;;11.40;;